Time;durP1;ratioP1;P1;durP2;ratioP2;P2;SDS_P1;SDS_P2;PMS_P1;PMS_P2;Temp;Humidity;BMP_temperature;BMP_pressure;BME280_temperature;BME280_humidity;BME280_pressure;Samples;Min_cycle;Max_cycle;Signal;HPM_P1;HPM_P2
2023/09/08 00:01:58;;;;;;;0.10;0.10;;;;;;;;;;6282062;28;20035;-84
2023/09/08 00:04:59;;;;;;;0.20;0.20;;;;;;;;;;6308291;28;20024;-85
2023/09/08 00:07:59;;;;;;;0.10;0.10;;;;;;;;;;6297427;28;20075;-84
2023/09/08 00:10:59;;;;;;;0.10;0.10;;;;;;;;;;6295923;28;20453;-85
2023/09/08 00:13:59;;;;;;;0.10;0.10;;;;;;;;;;6275106;28;20028;-84
2023/09/08 00:17:00;;;;;;;0.10;0.10;;;;;;;;;;6283166;28;20037;-85
2023/09/08 00:20:00;;;;;;;0.10;0.10;;;;;;;;;;6294520;28;20441;-85
2023/09/08 00:23:00;;;;;;;0.10;0.10;;;;;;;;;;6273299;28;20511;-85
2023/09/08 00:26:01;;;;;;;0.10;0.10;;;;;;;;;;6275945;28;20025;-85
2023/09/08 00:29:01;;;;;;;0.10;0.10;;;;;;;;;;6295176;28;20027;-85
2023/09/08 00:32:02;;;;;;;0.10;0.10;;;;;;;;;;6274595;28;20470;-85
2023/09/08 00:35:02;;;;;;;0.10;0.10;;;;;;;;;;6304876;28;20475;-88
2023/09/08 00:38:02;;;;;;;0.10;0.10;;;;;;;;;;6311852;28;20458;-89
2023/09/08 00:41:04;;;;;;;0.17;0.17;;;;;;;;;;6298395;28;20024;-89
2023/09/08 00:44:04;;;;;;;0.10;0.10;;;;;;;;;;6295475;28;20091;-90
2023/09/08 00:47:05;;;;;;;0.10;0.10;;;;;;;;;;6279082;28;20543;-89
2023/09/08 00:50:05;;;;;;;0.10;0.10;;;;;;;;;;6301469;28;20519;-89
2023/09/08 00:53:06;;;;;;;0.10;0.10;;;;;;;;;;6298151;28;20500;-90
2023/09/08 00:56:08;;;;;;;0.10;0.10;;;;;;;;;;6272770;28;20021;-85
2023/09/08 00:59:09;;;;;;;0.10;0.10;;;;;;;;;;6272939;28;20024;-85
2023/09/08 01:02:09;;;;;;;0.10;0.10;;;;;;;;;;6290077;28;20536;-89
2023/09/08 01:05:09;;;;;;;0.10;0.10;;;;;;;;;;6277764;28;20016;-89
2023/09/08 01:08:10;;;;;;;0.10;0.10;;;;;;;;;;6304964;28;20029;-89
2023/09/08 01:11:10;;;;;;;0.10;0.10;;;;;;;;;;6294253;28;20458;-88
2023/09/08 01:14:13;;;;;;;0.10;0.10;;;;;;;;;;6285471;28;20027;-89
2023/09/08 01:17:14;;;;;;;0.10;0.10;;;;;;;;;;6309919;28;20024;-89
2023/09/08 01:20:21;;;;;;;0.10;0.10;;;;;;;;;;6288135;28;20071;-89
2023/09/08 01:23:24;;;;;;;0.10;0.10;;;;;;;;;;6289879;28;20024;-88
2023/09/08 01:26:27;;;;;;;0.10;0.10;;;;;;;;;;6302869;28;20673;-88
2023/09/08 01:29:28;;;;;;;0.10;0.10;;;;;;;;;;6280567;28;20029;-88
2023/09/08 01:32:29;;;;;;;0.10;0.10;;;;;;;;;;6291066;28;20034;-88
2023/09/08 01:35:29;;;;;;;0.10;0.10;;;;;;;;;;6295067;28;20025;-87
2023/09/08 01:38:30;;;;;;;0.10;0.10;;;;;;;;;;6289947;28;20854;-88
2023/09/08 01:41:32;;;;;;;0.10;0.10;;;;;;;;;;6285892;28;20033;-88
2023/09/08 01:44:32;;;;;;;;;;;;;;;;;;6271745;28;20021;-88
2023/09/08 01:47:33;;;;;;;0.10;0.10;;;;;;;;;;6276183;28;20358;-88
2023/09/08 01:50:33;;;;;;;0.10;0.10;;;;;;;;;;6276590;28;20775;-88
2023/09/08 01:53:34;;;;;;;0.10;0.10;;;;;;;;;;6276304;28;20013;-88
2023/09/08 01:56:34;;;;;;;0.10;0.10;;;;;;;;;;6304578;28;20009;-88
2023/09/08 01:59:36;;;;;;;0.10;0.10;;;;;;;;;;6292512;28;20613;-88
2023/09/08 02:02:37;;;;;;;0.10;0.10;;;;;;;;;;6290704;28;20044;-88
2023/09/08 02:05:38;;;;;;;0.10;0.10;;;;;;;;;;6297543;28;20052;-85
2023/09/08 02:08:38;;;;;;;;;;;;;;;;;;6265801;28;20021;-84
2023/09/08 02:11:39;;;;;;;0.10;0.10;;;;;;;;;;6290048;28;19916;-84
2023/09/08 02:14:39;;;;;;;0.10;0.10;;;;;;;;;;6275632;28;20466;-84
2023/09/08 02:17:39;;;;;;;0.10;0.10;;;;;;;;;;6272476;28;20020;-84
2023/09/08 02:20:39;;;;;;;0.03;0.03;;;;;;;;;;6284039;28;20554;-84
2023/09/08 02:23:40;;;;;;;0.10;0.10;;;;;;;;;;6276068;28;20036;-84
2023/09/08 02:26:40;;;;;;;0.10;0.10;;;;;;;;;;6290418;28;20023;-84
2023/09/08 02:29:40;;;;;;;0.10;0.10;;;;;;;;;;6292719;28;20380;-84
2023/09/08 02:32:42;;;;;;;0.10;0.10;;;;;;;;;;6300418;28;20025;-84
2023/09/08 02:35:43;;;;;;;0.10;0.10;;;;;;;;;;6282324;28;20370;-84
2023/09/08 02:38:43;;;;;;;0.10;0.10;;;;;;;;;;6284126;28;20029;-84
2023/09/08 02:41:43;;;;;;;0.10;0.10;;;;;;;;;;6304026;28;20023;-84
2023/09/08 02:44:44;;;;;;;0.10;0.10;;;;;;;;;;6275631;28;20059;-84
2023/09/08 02:47:44;;;;;;;0.10;0.10;;;;;;;;;;6299663;28;20020;-84
2023/09/08 02:50:44;;;;;;;0.10;0.10;;;;;;;;;;6308527;28;20067;-84
2023/09/08 02:53:46;;;;;;;0.10;0.10;;;;;;;;;;6276020;28;20024;-84
2023/09/08 02:56:47;;;;;;;0.10;0.10;;;;;;;;;;6299944;28;20509;-84
2023/09/08 02:59:51;;;;;;;0.10;0.10;;;;;;;;;;6269535;28;20020;-84
2023/09/08 03:02:51;;;;;;;0.10;0.10;;;;;;;;;;6266165;28;20013;-84
2023/09/08 03:05:54;;;;;;;0.10;0.10;;;;;;;;;;6287825;28;20080;-84
2023/09/08 03:08:54;;;;;;;0.10;0.10;;;;;;;;;;6273031;28;20170;-85
2023/09/08 03:11:54;;;;;;;0.10;0.10;;;;;;;;;;6289846;28;20451;-84
2023/09/08 03:14:55;;;;;;;0.10;0.10;;;;;;;;;;6257533;28;20485;-85
2023/09/08 03:17:56;;;;;;;0.10;0.10;;;;;;;;;;6276883;28;20028;-85
2023/09/08 03:20:57;;;;;;;0.10;0.10;;;;;;;;;;6269540;28;20025;-85
2023/09/08 03:23:57;;;;;;;0.10;0.10;;;;;;;;;;6292030;28;20024;-84
2023/09/08 03:26:58;;;;;;;0.10;0.10;;;;;;;;;;6278791;28;20430;-85
2023/09/08 03:29:58;;;;;;;0.10;0.10;;;;;;;;;;6285070;28;20032;-84
2023/09/08 03:32:58;;;;;;;0.10;0.10;;;;;;;;;;6268381;28;20021;-84
2023/09/08 03:35:58;;;;;;;0.10;0.10;;;;;;;;;;6291397;28;20025;-85
2023/09/08 03:38:59;;;;;;;0.10;0.10;;;;;;;;;;6289158;28;20108;-84
2023/09/08 03:41:59;;;;;;;0.10;0.10;;;;;;;;;;6283928;28;20421;-84
2023/09/08 03:44:59;;;;;;;0.10;0.10;;;;;;;;;;6272333;28;20363;-84
2023/09/08 03:48:00;;;;;;;0.10;0.10;;;;;;;;;;6299057;28;20028;-84
2023/09/08 03:51:01;;;;;;;0.10;0.10;;;;;;;;;;6272402;28;20025;-84
2023/09/08 03:54:03;;;;;;;0.10;0.10;;;;;;;;;;6305887;28;20448;-84
2023/09/08 03:57:03;;;;;;;;;;;;;;;;;;6268800;28;20021;-84
2023/09/08 04:00:05;;;;;;;0.10;0.10;;;;;;;;;;6268940;28;19908;-84
2023/09/08 04:03:05;;;;;;;0.10;0.10;;;;;;;;;;6290750;28;20422;-84
2023/09/08 04:06:05;;;;;;;0.10;0.10;;;;;;;;;;6291183;28;20047;-84
2023/09/08 04:09:05;;;;;;;0.10;0.10;;;;;;;;;;6274113;28;20033;-84
2023/09/08 04:12:09;;;;;;;0.10;0.10;;;;;;;;;;6306105;28;20028;-83
2023/09/08 04:15:09;;;;;;;0.10;0.10;;;;;;;;;;6294545;28;20078;-84
2023/09/08 04:18:09;;;;;;;0.10;0.10;;;;;;;;;;6278282;28;20127;-85
2023/09/08 04:21:10;;;;;;;0.10;0.10;;;;;;;;;;6276622;28;20638;-83
2023/09/08 04:24:10;;;;;;;0.10;0.10;;;;;;;;;;6278304;28;20032;-85
2023/09/08 04:27:10;;;;;;;0.10;0.10;;;;;;;;;;6291323;28;20515;-84
2023/09/08 04:30:11;;;;;;;0.10;0.10;;;;;;;;;;6299769;28;20503;-84
2023/09/08 04:33:12;;;;;;;0.10;0.10;;;;;;;;;;6288907;28;20813;-84
2023/09/08 04:36:13;;;;;;;0.10;0.10;;;;;;;;;;6286927;28;20455;-84
2023/09/08 04:39:15;;;;;;;0.10;0.10;;;;;;;;;;6286660;28;20051;-84
2023/09/08 04:42:15;;;;;;;;;;;;;;;;;;6296083;28;20013;-84
2023/09/08 04:45:15;;;;;;;0.10;0.10;;;;;;;;;;6274635;28;20306;-84
2023/09/08 04:48:16;;;;;;;0.10;0.10;;;;;;;;;;6267646;28;20027;-84
2023/09/08 04:51:16;;;;;;;0.10;0.10;;;;;;;;;;6284148;28;20024;-84
2023/09/08 04:54:16;;;;;;;0.10;0.10;;;;;;;;;;6289775;28;20382;-84
2023/09/08 04:57:17;;;;;;;0.10;0.10;;;;;;;;;;6297178;28;20396;-83
2023/09/08 05:00:17;;;;;;;0.10;0.10;;;;;;;;;;6272877;28;20482;-84
2023/09/08 05:03:18;;;;;;;0.10;0.10;;;;;;;;;;6292857;28;20033;-84
2023/09/08 05:06:18;;;;;;;0.10;0.10;;;;;;;;;;6276990;28;20158;-83
2023/09/08 05:09:19;;;;;;;0.10;0.10;;;;;;;;;;6275742;28;20458;-83
2023/09/08 05:12:19;;;;;;;0.10;0.10;;;;;;;;;;6299927;28;20094;-84
2023/09/08 05:15:21;;;;;;;0.10;0.10;;;;;;;;;;6292038;28;20074;-83
2023/09/08 05:18:21;;;;;;;;;;;;;;;;;;6267730;28;20028;-83
2023/09/08 05:21:21;;;;;;;0.10;0.10;;;;;;;;;;6297113;28;19928;-83
2023/09/08 05:24:22;;;;;;;0.10;0.10;;;;;;;;;;6294480;28;20521;-84
2023/09/08 05:27:22;;;;;;;0.10;0.10;;;;;;;;;;6269262;28;20397;-83
2023/09/08 05:30:22;;;;;;;0.10;0.10;;;;;;;;;;6269105;28;20054;-83
2023/09/08 05:33:22;;;;;;;0.10;0.10;;;;;;;;;;6276532;28;20417;-83
2023/09/08 05:36:22;;;;;;;0.10;0.10;;;;;;;;;;6262859;28;20031;-82
2023/09/08 05:39:23;;;;;;;0.00;0.00;;;;;;;;;;6266612;28;20047;-83
2023/09/08 05:42:23;;;;;;;0.00;0.00;;;;;;;;;;6282451;28;20020;-83
2023/09/08 05:45:25;;;;;;;0.00;0.00;;;;;;;;;;6308864;28;20098;-83
2023/09/08 05:48:25;;;;;;;0.00;0.00;;;;;;;;;;6285351;28;20409;-83
2023/09/08 05:51:26;;;;;;;0.00;0.00;;;;;;;;;;6266505;28;20064;-83
2023/09/08 05:54:26;;;;;;;0.00;0.00;;;;;;;;;;6284570;28;20394;-84
2023/09/08 05:57:26;;;;;;;0.00;0.00;;;;;;;;;;6291109;28;20028;-84
2023/09/08 06:00:26;;;;;;;0.00;0.00;;;;;;;;;;6281683;28;20417;-83
2023/09/08 06:03:26;;;;;;;0.00;0.00;;;;;;;;;;6278798;28;20062;-83
2023/09/08 06:06:28;;;;;;;0.00;0.00;;;;;;;;;;6277635;28;20500;-83
2023/09/08 06:09:28;;;;;;;0.00;0.00;;;;;;;;;;6284352;28;20062;-83
2023/09/08 06:12:28;;;;;;;0.00;0.00;;;;;;;;;;6303881;28;20424;-84
2023/09/08 06:15:29;;;;;;;0.00;0.00;;;;;;;;;;6305011;28;20021;-83
2023/09/08 06:18:30;;;;;;;0.00;0.00;;;;;;;;;;6265485;28;20111;-83
2023/09/08 06:21:30;;;;;;;0.00;0.00;;;;;;;;;;6279333;28;20103;-83
2023/09/08 06:24:31;;;;;;;0.00;0.00;;;;;;;;;;6286061;28;20028;-83
2023/09/08 06:27:31;;;;;;;0.00;0.00;;;;;;;;;;6282516;28;20545;-84
2023/09/08 06:30:31;;;;;;;0.00;0.00;;;;;;;;;;6287147;28;20724;-83
2023/09/08 06:33:31;;;;;;;0.00;0.00;;;;;;;;;;6265191;28;20032;-83
2023/09/08 06:36:32;;;;;;;0.00;0.00;;;;;;;;;;6281148;28;20047;-83
2023/09/08 06:39:32;;;;;;;0.00;0.00;;;;;;;;;;6271264;28;20016;-83
2023/09/08 06:42:32;;;;;;;0.00;0.00;;;;;;;;;;6299432;28;20558;-83
2023/09/08 06:45:32;;;;;;;0.00;0.00;;;;;;;;;;6279132;28;20454;-84
2023/09/08 06:48:33;;;;;;;0.00;0.00;;;;;;;;;;6304872;28;20024;-84
2023/09/08 06:51:33;;;;;;;0.00;0.00;;;;;;;;;;6285276;28;20494;-83
2023/09/08 06:54:34;;;;;;;0.00;0.00;;;;;;;;;;6273365;28;20079;-84
2023/09/08 06:57:34;;;;;;;0.00;0.00;;;;;;;;;;6286471;28;20071;-84
2023/09/08 07:00:34;;;;;;;0.00;0.00;;;;;;;;;;6288762;28;20021;-84
2023/09/08 07:03:36;;;;;;;0.00;0.00;;;;;;;;;;6279273;28;20017;-84
2023/09/08 07:06:38;;;;;;;0.00;0.00;;;;;;;;;;6276949;28;20048;-84
2023/09/08 07:09:39;;;;;;;0.00;0.00;;;;;;;;;;6274874;28;20538;-83
2023/09/08 07:12:39;;;;;;;0.00;0.00;;;;;;;;;;6286390;28;20029;-84
2023/09/08 07:15:39;;;;;;;0.00;0.00;;;;;;;;;;6285987;28;20020;-84
2023/09/08 07:18:39;;;;;;;0.00;0.00;;;;;;;;;;6288641;28;20107;-84
2023/09/08 07:21:40;;;;;;;0.00;0.00;;;;;;;;;;6286257;28;20024;-84
2023/09/08 07:24:40;;;;;;;0.00;0.00;;;;;;;;;;6301539;28;20039;-84
2023/09/08 07:27:40;;;;;;;0.00;0.00;;;;;;;;;;6281493;28;20055;-83
2023/09/08 07:30:40;;;;;;;0.00;0.00;;;;;;;;;;6271769;28;20051;-83
2023/09/08 07:33:41;;;;;;;0.00;0.00;;;;;;;;;;6292406;28;20045;-84
2023/09/08 07:36:41;;;;;;;0.00;0.00;;;;;;;;;;6300096;28;20263;-82
2023/09/08 07:39:41;;;;;;;;;;;;;;;;;;6263215;28;20113;-83
2023/09/08 07:42:41;;;;;;;0.00;0.00;;;;;;;;;;6271130;28;20365;-84
2023/09/08 07:45:42;;;;;;;0.00;0.00;;;;;;;;;;6286209;28;20111;-84
2023/09/08 07:48:42;;;;;;;;;;;;;;;;;;6305037;28;20099;-83
2023/09/08 07:51:42;;;;;;;0.00;0.00;;;;;;;;;;6284805;28;19998;-83
2023/09/08 07:54:42;;;;;;;0.00;0.00;;;;;;;;;;6299459;28;20036;-83
2023/09/08 07:57:43;;;;;;;0.00;0.00;;;;;;;;;;6297854;28;20031;-92
2023/09/08 08:00:44;;;;;;;;;;;;;;;;;;6302994;28;20033;-92
2023/09/08 08:03:44;;;;;;;0.00;0.00;;;;;;;;;;6302986;28;19904;-92
2023/09/08 08:06:44;;;;;;;0.00;0.00;;;;;;;;;;6302655;28;20036;-92
2023/09/08 08:09:44;;;;;;;;;;;;;;;;;;6310970;28;20538;-92
2023/09/08 08:12:45;;;;;;;0.00;0.00;;;;;;;;;;6299686;28;19913;-92
2023/09/08 08:15:47;;;;;;;0.00;0.00;;;;;;;;;;6293986;28;20063;-92
2023/09/08 08:18:47;;;;;;;0.00;0.00;;;;;;;;;;6282202;28;20297;-92
2023/09/08 08:21:47;;;;;;;0.00;0.00;;;;;;;;;;6279145;28;20719;-92
2023/09/08 08:24:48;;;;;;;0.00;0.00;;;;;;;;;;6277571;28;20028;-91
2023/09/08 08:27:48;;;;;;;0.00;0.00;;;;;;;;;;6307325;28;20016;-92
2023/09/08 08:30:48;;;;;;;0.00;0.00;;;;;;;;;;6303757;28;20484;-92
2023/09/08 08:33:49;;;;;;;0.00;0.00;;;;;;;;;;6290470;28;20025;-92
2023/09/08 08:36:49;;;;;;;0.00;0.00;;;;;;;;;;6282144;28;20459;-93
2023/09/08 08:39:49;;;;;;;0.00;0.00;;;;;;;;;;6299948;28;20032;-92
2023/09/08 08:42:54;;;;;;;0.00;0.00;;;;;;;;;;6299082;28;20017;-92
2023/09/08 08:45:55;;;;;;;0.00;0.00;;;;;;;;;;6283287;28;20013;-92
2023/09/08 08:48:56;;;;;;;0.00;0.00;;;;;;;;;;6263667;28;20107;-92
2023/09/08 08:51:57;;;;;;;0.00;0.00;;;;;;;;;;6289481;28;20035;-92
2023/09/08 08:54:58;;;;;;;0.00;0.00;;;;;;;;;;6289147;28;20013;-92
2023/09/08 08:58:01;;;;;;;0.00;0.00;;;;;;;;;;6301026;28;20103;-93
2023/09/08 09:01:01;;;;;;;0.00;0.00;;;;;;;;;;6272969;28;20026;-93
2023/09/08 09:04:04;;;;;;;0.00;0.00;;;;;;;;;;6277514;28;20753;-93
2023/09/08 09:07:06;;;;;;;0.00;0.00;;;;;;;;;;6251106;28;20042;-93
2023/09/08 09:10:07;;;;;;;0.00;0.00;;;;;;;;;;6269625;28;20035;-93
2023/09/08 09:13:07;;;;;;;;;;;;;;;;;;6269280;28;20063;-93
2023/09/08 09:16:10;;;;;;;0.00;0.00;;;;;;;;;;6248414;28;19909;-92
2023/09/08 09:19:18;;;;;;;0.00;0.00;;;;;;;;;;6260671;28;20092;-91
2023/09/08 09:22:21;;;;;;;0.00;0.00;;;;;;;;;;6268429;28;20044;-93
2023/09/08 09:25:22;;;;;;;0.00;0.00;;;;;;;;;;6247587;28;20020;-94
2023/09/08 09:28:23;;;;;;;0.00;0.00;;;;;;;;;;6281419;28;20021;-93
2023/09/08 09:31:24;;;;;;;0.00;0.00;;;;;;;;;;6247965;28;20021;-93
2023/09/08 09:34:25;;;;;;;0.00;0.00;;;;;;;;;;6265232;28;20052;-94
2023/09/08 09:37:25;;;;;;;0.00;0.00;;;;;;;;;;6247904;28;20668;-94
2023/09/08 09:40:27;;;;;;;0.00;0.00;;;;;;;;;;6267975;28;20707;-94
2023/09/08 09:43:29;;;;;;;0.00;0.00;;;;;;;;;;6246770;28;20027;-94
2023/09/08 09:46:29;;;;;;;0.00;0.00;;;;;;;;;;6247228;28;20498;-94
2023/09/08 09:49:31;;;;;;;0.00;0.00;;;;;;;;;;6270138;28;20026;-94
2023/09/08 09:52:38;;;;;;;0.00;0.00;;;;;;;;;;6250725;28;20028;-94
2023/09/08 09:55:39;;;;;;;0.00;0.00;;;;;;;;;;6249801;28;20029;-93
2023/09/08 09:58:40;;;;;;;0.00;0.00;;;;;;;;;;6263781;28;20020;-94
2023/09/08 10:01:40;;;;;;;;;;;;;;;;;;6259215;28;20360;-93
2023/09/08 10:04:41;;;;;;;0.00;0.00;;;;;;;;;;6244831;28;19944;-94
2023/09/08 10:07:43;;;;;;;0.00;0.00;;;;;;;;;;6284779;28;20056;-93
2023/09/08 10:10:45;;;;;;;;;;;;;;;;;;6272227;28;20058;-92
2023/09/08 10:13:47;;;;;;;0.00;0.00;;;;;;;;;;6291456;28;19908;-92
2023/09/08 10:16:52;;;;;;;0.00;0.00;;;;;;;;;;6274876;28;20020;-92
2023/09/08 10:19:53;;;;;;;0.00;0.00;;;;;;;;;;6276233;28;20032;-92
2023/09/08 10:23:01;;;;;;;0.00;0.00;;;;;;;;;;6285464;28;20422;-91
2023/09/08 10:26:04;;;;;;;0.00;0.00;;;;;;;;;;6262256;28;20028;-92
2023/09/08 10:29:04;;;;;;;0.00;0.00;;;;;;;;;;6274232;28;20098;-92
2023/09/08 10:32:04;;;;;;;;;;;;;;;;;;6278768;28;20028;-92
2023/09/08 10:35:06;;;;;;;0.00;0.00;;;;;;;;;;6286204;28;20370;-92
2023/09/08 10:38:25;;;;;;;0.00;0.00;;;;;;;;;;6283020;28;20024;-92
2023/09/08 10:41:27;;;;;;;0.00;0.00;;;;;;;;;;6276585;28;20032;-92
2023/09/08 10:44:32;;;;;;;0.00;0.00;;;;;;;;;;6293515;28;20031;-91
2023/09/08 10:47:34;;;;;;;0.00;0.00;;;;;;;;;;6276721;28;20013;-92
2023/09/08 10:50:35;;;;;;;0.00;0.00;;;;;;;;;;6287311;28;20025;-92
2023/09/08 10:53:35;;;;;;;;;;;;;;;;;;6287595;28;20052;-92
2023/09/08 10:56:55;;;;;;;0.00;0.00;;;;;;;;;;6295158;28;19914;-92
2023/09/08 11:00:01;;;;;;;0.00;0.00;;;;;;;;;;6266325;28;20454;-91
2023/09/08 11:03:02;;;;;;;0.00;0.00;;;;;;;;;;6290248;28;20023;-91
2023/09/08 11:06:06;;;;;;;0.00;0.00;;;;;;;;;;6272884;28;20114;-94
2023/09/08 11:09:07;;;;;;;0.00;0.00;;;;;;;;;;6287815;28;20090;-92
2023/09/08 11:12:08;;;;;;;0.00;0.00;;;;;;;;;;6263234;28;20395;-92
2023/09/08 11:15:08;;;;;;;;;;;;;;;;;;6289554;28;20021;-92
2023/09/08 11:18:08;;;;;;;0.00;0.00;;;;;;;;;;6296558;28;19997;-92
2023/09/08 11:21:08;;;;;;;;;;;;;;;;;;6282921;28;20032;-92
2023/09/08 11:24:10;;;;;;;0.00;0.00;;;;;;;;;;6274000;28;19944;-92
2023/09/08 11:27:13;;;;;;;0.00;0.00;;;;;;;;;;6300763;28;20079;-92
2023/09/08 11:30:14;;;;;;;0.00;0.00;;;;;;;;;;6280325;28;20090;-93
2023/09/08 11:33:14;;;;;;;;;;;;;;;;;;6287124;28;20107;-93
2023/09/08 11:36:14;;;;;;;0.00;0.00;;;;;;;;;;6299633;28;19917;-92
2023/09/08 11:39:15;;;;;;;;;;;;;;;;;;6272153;28;20481;-92
2023/09/08 11:42:15;;;;;;;0.00;0.00;;;;;;;;;;6303408;28;20013;-93
2023/09/08 11:45:23;;;;;;;0.00;0.00;;;;;;;;;;6290534;28;20024;-93
2023/09/08 11:48:24;;;;;;;0.00;0.00;;;;;;;;;;6283339;28;20028;-93
2023/09/08 11:51:25;;;;;;;0.00;0.00;;;;;;;;;;6293342;28;20032;-93
2023/09/08 11:54:27;;;;;;;0.00;0.00;;;;;;;;;;6288063;28;20021;-93
2023/09/08 11:57:28;;;;;;;0.00;0.00;;;;;;;;;;6290366;28;20034;-92
2023/09/08 12:00:28;;;;;;;;;;;;;;;;;;6279364;28;20473;-92
2023/09/08 12:03:28;;;;;;;0.00;0.00;;;;;;;;;;6277110;28;19958;-92
2023/09/08 12:06:28;;;;;;;;;;;;;;;;;;6304199;28;20498;-92
2023/09/08 12:09:29;;;;;;;0.00;0.00;;;;;;;;;;6302216;28;19909;-92
2023/09/08 12:12:29;;;;;;;;;;;;;;;;;;6290849;28;20027;-92
2023/09/08 12:15:33;;;;;;;0.00;0.00;;;;;;;;;;6295430;28;19909;-93
2023/09/08 12:18:37;;;;;;;0.00;0.00;;;;;;;;;;6298102;28;20077;-89
2023/09/08 12:21:57;;;;;;;0.00;0.00;;;;;;;;;;6279178;28;20819;-89
2023/09/08 12:24:58;;;;;;;0.00;0.00;;;;;;;;;;6293270;28;20009;-89
2023/09/08 12:27:59;;;;;;;0.00;0.00;;;;;;;;;;6275391;28;20595;-89
2023/09/08 12:30:59;;;;;;;;;;;;;;;;;;6287325;28;20016;-93
2023/09/08 12:34:00;;;;;;;0.00;0.00;;;;;;;;;;6294320;28;19912;-93
2023/09/08 12:37:00;;;;;;;;;;;;;;;;;;6280698;28;20016;-82
2023/09/08 12:40:01;;;;;;;0.00;0.00;;;;;;;;;;6274211;28;20408;-84
2023/09/08 12:43:01;;;;;;;0.00;0.00;;;;;;;;;;6279846;28;20032;-84
2023/09/08 12:46:01;;;;;;;;;;;;;;;;;;6278270;28;20024;-83
2023/09/08 12:49:02;;;;;;;0.00;0.00;;;;;;;;;;6275294;28;20346;-83
2023/09/08 12:52:02;;;;;;;;;;;;;;;;;;6284158;28;20576;-83
2023/09/08 12:55:02;;;;;;;0.00;0.00;;;;;;;;;;6280484;28;19965;-83
2023/09/08 12:58:02;;;;;;;;;;;;;;;;;;6287091;28;20028;-83
2023/09/08 13:01:05;;;;;;;0.00;0.00;;;;;;;;;;6284600;28;19936;-83
2023/09/08 13:04:05;;;;;;;0.00;0.00;;;;;;;;;;6279058;28;20047;-83
2023/09/08 13:07:05;;;;;;;;;;;;;;;;;;6285496;28;20049;-83
2023/09/08 13:10:06;;;;;;;0.00;0.00;;;;;;;;;;6276147;28;19976;-83
2023/09/08 13:13:06;;;;;;;;;;;;;;;;;;6284979;28;20023;-83
2023/09/08 13:16:06;;;;;;;0.00;0.00;;;;;;;;;;6291373;28;19912;-83
2023/09/08 13:19:06;;;;;;;0.00;0.00;;;;;;;;;;6306306;28;20024;-84
2023/09/08 13:22:07;;;;;;;0.00;0.00;;;;;;;;;;6295292;28;20027;-83
2023/09/08 13:25:07;;;;;;;0.00;0.00;;;;;;;;;;6281284;28;20032;-83
2023/09/08 13:28:08;;;;;;;0.00;0.00;;;;;;;;;;6273025;28;20012;-83
2023/09/08 13:31:08;;;;;;;;;;;;;;;;;;6293428;28;20467;-83
2023/09/08 13:34:08;;;;;;;0.00;0.00;;;;;;;;;;6287102;28;19995;-83
2023/09/08 13:37:08;;;;;;;0.00;0.00;;;;;;;;;;6299230;28;20054;-84
2023/09/08 13:40:08;;;;;;;0.00;0.00;;;;;;;;;;6285838;28;20034;-83
2023/09/08 13:43:09;;;;;;;0.00;0.00;;;;;;;;;;6290572;28;20027;-83
2023/09/08 13:46:09;;;;;;;0.00;0.00;;;;;;;;;;6276248;28;20020;-83
2023/09/08 13:49:09;;;;;;;0.00;0.00;;;;;;;;;;6268328;28;20024;-83
2023/09/08 13:52:09;;;;;;;0.00;0.00;;;;;;;;;;6289542;28;20791;-83
2023/09/08 13:55:10;;;;;;;0.00;0.00;;;;;;;;;;6288133;28;20028;-83
2023/09/08 13:58:10;;;;;;;0.00;0.00;;;;;;;;;;6288570;28;20762;-83
2023/09/08 14:01:11;;;;;;;0.00;0.00;;;;;;;;;;6274826;28;20039;-84
2023/09/08 14:04:12;;;;;;;0.00;0.00;;;;;;;;;;6297183;28;20052;-83
2023/09/08 14:07:13;;;;;;;0.00;0.00;;;;;;;;;;6282814;28;20041;-83
2023/09/08 14:10:14;;;;;;;0.00;0.00;;;;;;;;;;6287562;28;20036;-82
2023/09/08 14:13:14;;;;;;;0.00;0.00;;;;;;;;;;6294015;28;20078;-83
2023/09/08 14:16:14;;;;;;;0.00;0.00;;;;;;;;;;6284850;28;20029;-83
2023/09/08 14:19:15;;;;;;;0.00;0.00;;;;;;;;;;6283450;28;20032;-82
2023/09/08 14:22:15;;;;;;;0.00;0.00;;;;;;;;;;6300781;28;20017;-82
2023/09/08 14:25:16;;;;;;;0.00;0.00;;;;;;;;;;6253942;28;20230;-82
2023/09/08 14:28:16;;;;;;;0.00;0.00;;;;;;;;;;6280483;28;20032;-83
2023/09/08 14:31:16;;;;;;;0.00;0.00;;;;;;;;;;6290082;28;20032;-83
2023/09/08 14:34:16;;;;;;;0.00;0.00;;;;;;;;;;6281904;28;20032;-82
2023/09/08 14:37:17;;;;;;;0.00;0.00;;;;;;;;;;6296593;28;20390;-83
2023/09/08 14:40:17;;;;;;;0.00;0.00;;;;;;;;;;6274053;28;20060;-83
2023/09/08 14:43:17;;;;;;;0.00;0.00;;;;;;;;;;6286754;28;20012;-82
2023/09/08 14:46:17;;;;;;;0.00;0.00;;;;;;;;;;6274515;28;20032;-82
2023/09/08 14:49:17;;;;;;;0.00;0.00;;;;;;;;;;6287586;28;20040;-82
2023/09/08 14:52:20;;;;;;;0.00;0.00;;;;;;;;;;6294548;28;20032;-83
2023/09/08 14:55:21;;;;;;;0.00;0.00;;;;;;;;;;6291698;28;20032;-84
2023/09/08 14:58:22;;;;;;;0.00;0.00;;;;;;;;;;6282652;28;20438;-83
2023/09/08 15:01:22;;;;;;;0.00;0.00;;;;;;;;;;6288345;28;20025;-83
2023/09/08 15:04:22;;;;;;;0.00;0.00;;;;;;;;;;6283727;28;20471;-84
2023/09/08 15:07:22;;;;;;;0.00;0.00;;;;;;;;;;6267436;28;20601;-83
2023/09/08 15:10:23;;;;;;;0.00;0.00;;;;;;;;;;6282924;28;20066;-83
2023/09/08 15:13:24;;;;;;;0.00;0.00;;;;;;;;;;6289060;28;20086;-83
2023/09/08 15:16:24;;;;;;;0.00;0.00;;;;;;;;;;6275144;28;20082;-83
2023/09/08 15:19:24;;;;;;;0.00;0.00;;;;;;;;;;6286667;28;20554;-83
2023/09/08 15:22:25;;;;;;;0.00;0.00;;;;;;;;;;6294611;28;20027;-83
2023/09/08 15:25:25;;;;;;;0.00;0.00;;;;;;;;;;6292154;28;20108;-83
2023/09/08 15:28:25;;;;;;;0.00;0.00;;;;;;;;;;6288097;28;20110;-83
2023/09/08 15:31:26;;;;;;;0.00;0.00;;;;;;;;;;6284394;28;20054;-83
2023/09/08 15:34:26;;;;;;;0.00;0.00;;;;;;;;;;6281626;28;20147;-84
2023/09/08 15:37:26;;;;;;;0.00;0.00;;;;;;;;;;6284954;28;20040;-82
2023/09/08 15:40:26;;;;;;;0.00;0.00;;;;;;;;;;6270540;28;20445;-83
2023/09/08 15:43:27;;;;;;;0.00;0.00;;;;;;;;;;6283907;28;20532;-83
2023/09/08 15:46:27;;;;;;;0.00;0.00;;;;;;;;;;6275172;28;20024;-83
2023/09/08 15:49:27;;;;;;;0.00;0.00;;;;;;;;;;6263697;28;20484;-83
2023/09/08 15:52:27;;;;;;;0.00;0.00;;;;;;;;;;6290351;28;20025;-82
2023/09/08 15:55:27;;;;;;;0.00;0.00;;;;;;;;;;6284869;28;20426;-82
2023/09/08 15:58:28;;;;;;;0.00;0.00;;;;;;;;;;6268884;28;20105;-83
2023/09/08 16:01:28;;;;;;;0.00;0.00;;;;;;;;;;6284533;28;20028;-83
2023/09/08 16:04:28;;;;;;;0.00;0.00;;;;;;;;;;6287046;28;20078;-83
2023/09/08 16:07:29;;;;;;;0.00;0.00;;;;;;;;;;6293457;28;20048;-83
2023/09/08 16:10:29;;;;;;;0.00;0.00;;;;;;;;;;6288465;28;20120;-84
2023/09/08 16:13:35;;;;;;;0.00;0.00;;;;;;;;;;6298630;28;20063;-83
2023/09/08 16:16:36;;;;;;;0.00;0.00;;;;;;;;;;6273692;28;20378;-83
2023/09/08 16:19:36;;;;;;;0.00;0.00;;;;;;;;;;6283909;28;20495;-83
2023/09/08 16:22:36;;;;;;;0.00;0.00;;;;;;;;;;6294546;28;20542;-82
2023/09/08 16:25:36;;;;;;;0.00;0.00;;;;;;;;;;6286273;28;20463;-82
2023/09/08 16:28:37;;;;;;;0.00;0.00;;;;;;;;;;6296338;28;20540;-83
2023/09/08 16:31:37;;;;;;;0.00;0.00;;;;;;;;;;6272831;28;20499;-82
2023/09/08 16:34:37;;;;;;;0.00;0.00;;;;;;;;;;6288285;28;20028;-82
2023/09/08 16:37:37;;;;;;;0.00;0.00;;;;;;;;;;6272134;28;20126;-82
2023/09/08 16:40:38;;;;;;;;;;;;;;;;;;6289099;28;20287;-83
2023/09/08 16:43:38;;;;;;;0.00;0.00;;;;;;;;;;6278356;28;20366;-83
2023/09/08 16:46:38;;;;;;;0.00;0.00;;;;;;;;;;6280893;28;20070;-82
2023/09/08 16:49:38;;;;;;;;;;;;;;;;;;6278186;28;20020;-83
2023/09/08 16:52:40;;;;;;;0.00;0.00;;;;;;;;;;6291435;28;20377;-83
2023/09/08 16:55:41;;;;;;;0.00;0.00;;;;;;;;;;6290682;28;20071;-83
2023/09/08 16:58:41;;;;;;;0.00;0.00;;;;;;;;;;6287860;28;20060;-82
2023/09/08 17:01:41;;;;;;;0.00;0.00;;;;;;;;;;6275783;28;20496;-83
2023/09/08 17:04:44;;;;;;;0.00;0.00;;;;;;;;;;6269257;28;20024;-83
2023/09/08 17:07:44;;;;;;;0.00;0.00;;;;;;;;;;6294060;28;20507;-82
2023/09/08 17:10:47;;;;;;;0.00;0.00;;;;;;;;;;6285779;28;20032;-83
2023/09/08 17:13:47;;;;;;;0.00;0.00;;;;;;;;;;6281921;28;20063;-82
2023/09/08 17:16:48;;;;;;;0.00;0.00;;;;;;;;;;6285730;28;20036;-82
2023/09/08 17:19:48;;;;;;;0.00;0.00;;;;;;;;;;6270668;28;20090;-82
2023/09/08 17:22:48;;;;;;;0.00;0.00;;;;;;;;;;6292475;28;20024;-82
2023/09/08 17:25:50;;;;;;;0.00;0.00;;;;;;;;;;6296281;28;20040;-84
2023/09/08 17:28:51;;;;;;;0.00;0.00;;;;;;;;;;6265923;28;20488;-84
2023/09/08 17:31:52;;;;;;;0.00;0.00;;;;;;;;;;6284089;28;20488;-85
2023/09/08 17:34:53;;;;;;;0.00;0.00;;;;;;;;;;6285714;28;20051;-82
2023/09/08 17:37:53;;;;;;;0.10;0.10;;;;;;;;;;6276847;28;20028;-82
2023/09/08 17:40:53;;;;;;;0.00;0.00;;;;;;;;;;6268023;28;20497;-82
2023/09/08 17:43:53;;;;;;;0.00;0.00;;;;;;;;;;6275460;28;20020;-82
2023/09/08 17:46:54;;;;;;;0.10;0.10;;;;;;;;;;6261729;28;20064;-84
2023/09/08 17:49:54;;;;;;;0.00;0.00;;;;;;;;;;6263041;28;20032;-83
2023/09/08 17:52:54;;;;;;;0.10;0.10;;;;;;;;;;6276642;28;20106;-83
2023/09/08 17:55:54;;;;;;;0.00;0.00;;;;;;;;;;6283601;28;20024;-83
2023/09/08 17:58:55;;;;;;;0.00;0.00;;;;;;;;;;6286618;28;20119;-83
2023/09/08 18:01:55;;;;;;;0.00;0.00;;;;;;;;;;6285788;28;20020;-84
2023/09/08 18:04:55;;;;;;;0.00;0.00;;;;;;;;;;6258767;28;20020;-84
2023/09/08 18:07:55;;;;;;;0.10;0.10;;;;;;;;;;6279333;28;20041;-83
2023/09/08 18:11:02;;;;;;;0.10;0.10;;;;;;;;;;6286224;28;20028;-84
2023/09/08 18:14:02;;;;;;;0.10;0.10;;;;;;;;;;6281763;28;20031;-83
2023/09/08 18:17:03;;;;;;;0.10;0.10;;;;;;;;;;6289853;28;20028;-83